Time;durP1;ratioP1;P1;durP2;ratioP2;P2;SDS_P1;SDS_P2;PMS_P1;PMS_P2;Temp;Humidity;BMP_temperature;BMP_pressure;BME280_temperature;BME280_humidity;BME280_pressure;Samples;Min_cycle;Max_cycle;Signal;HPM_P1;HPM_P2
2023/10/25 00:00:52;;;;;;;3.63;2.80;;;;;;;;;;5093650;28;20024;-58
2023/10/25 00:03:18;;;;;;;2.80;1.70;;;;;;;;;;5093517;28;20024;-58
2023/10/25 00:05:45;;;;;;;3.58;2.47;;;;;;;;;;5093706;28;20036;-58
2023/10/25 00:08:14;;;;;;;2.58;2.00;;;;;;;;;;5093494;28;20342;-58
2023/10/25 00:10:40;;;;;;;3.30;2.10;;;;;;;;;;5093868;28;20035;-58
2023/10/25 00:13:06;;;;;;;3.05;2.38;;;;;;;;;;5093338;28;20036;-58
2023/10/25 00:15:32;;;;;;;3.42;2.08;;;;;;;;;;5093488;28;20024;-58
2023/10/25 00:17:58;;;;;;;2.70;1.85;;;;;;;;;;5093477;28;20031;-58
2023/10/25 00:20:24;;;;;;;2.90;2.30;;;;;;;;;;5093559;28;20078;-58
2023/10/25 00:22:50;;;;;;;3.22;2.38;;;;;;;;;;5093689;28;20129;-58
2023/10/25 00:25:16;;;;;;;2.75;2.05;;;;;;;;;;5093929;28;20402;-58
2023/10/25 00:27:42;;;;;;;3.72;2.10;;;;;;;;;;5093316;28;20020;-58
2023/10/25 00:30:08;;;;;;;3.90;2.72;;;;;;;;;;5093928;28;20036;-58
2023/10/25 00:32:34;;;;;;;3.03;2.25;;;;;;;;;;5093663;28;20043;-58
2023/10/25 00:35:00;;;;;;;2.85;2.17;;;;;;;;;;5093742;28;20024;-58
2023/10/25 00:37:26;;;;;;;3.47;2.17;;;;;;;;;;5093651;28;20040;-58
2023/10/25 00:39:53;;;;;;;4.57;2.25;;;;;;;;;;5096494;28;20107;-58
2023/10/25 00:42:19;;;;;;;2.45;1.88;;;;;;;;;;5097291;28;20103;-58
2023/10/25 00:44:45;;;;;;;4.40;2.70;;;;;;;;;;5097646;28;20060;-58
2023/10/25 00:47:11;;;;;;;3.13;2.30;;;;;;;;;;5097700;28;20020;-58
2023/10/25 00:49:37;;;;;;;2.45;1.75;;;;;;;;;;5097690;28;20057;-58
2023/10/25 00:52:03;;;;;;;2.97;2.10;;;;;;;;;;5097015;28;20369;-58
2023/10/25 00:54:29;;;;;;;3.42;2.80;;;;;;;;;;5096888;28;20029;-58
2023/10/25 00:56:55;;;;;;;2.78;2.22;;;;;;;;;;5096967;28;20024;-58
2023/10/25 00:59:22;;;;;;;2.95;2.35;;;;;;;;;;5096984;28;20020;-58
2023/10/25 01:01:48;;;;;;;9.65;2.78;;;;;;;;;;5097235;28;20059;-58
2023/10/25 01:04:14;;;;;;;4.22;2.80;;;;;;;;;;5096984;28;20056;-58
2023/10/25 01:06:40;;;;;;;5.07;3.90;;;;;;;;;;5096832;28;20034;-58
2023/10/25 01:09:06;;;;;;;45.95;6.25;;;;;;;;;;5096749;28;20474;-58
2023/10/25 01:11:32;;;;;;;50.92;7.85;;;;;;;;;;5097307;28;20461;-58
2023/10/25 01:13:58;;;;;;;89.15;10.43;;;;;;;;;;5096550;28;20028;-58
2023/10/25 01:16:24;;;;;;;122.93;11.60;;;;;;;;;;5097088;28;20111;-58
2023/10/25 01:18:50;;;;;;;64.43;9.60;;;;;;;;;;5097318;28;20024;-58
2023/10/25 01:21:16;;;;;;;36.63;7.57;;;;;;;;;;5096568;28;20450;-58
2023/10/25 01:23:42;;;;;;;14.02;4.72;;;;;;;;;;5096221;28;20032;-58
2023/10/25 01:26:08;;;;;;;11.23;4.50;;;;;;;;;;5097495;28;20047;-58
2023/10/25 01:28:34;;;;;;;35.13;5.45;;;;;;;;;;5096344;28;20444;-58
2023/10/25 01:31:00;;;;;;;37.08;6.05;;;;;;;;;;5096377;28;20400;-58
2023/10/25 01:33:26;;;;;;;131.85;11.18;;;;;;;;;;5095867;28;20036;-58
2023/10/25 01:35:52;;;;;;;59.78;6.55;;;;;;;;;;5096070;28;20452;-58
2023/10/25 01:38:18;;;;;;;55.30;7.70;;;;;;;;;;5096462;28;20024;-59
2023/10/25 01:40:44;;;;;;;19.58;4.20;;;;;;;;;;5096694;28;20063;-58
2023/10/25 01:43:10;;;;;;;5.63;4.45;;;;;;;;;;5096090;28;20359;-58
2023/10/25 01:45:36;;;;;;;3.90;3.22;;;;;;;;;;5096570;28;20024;-58
2023/10/25 01:48:02;;;;;;;4.25;2.70;;;;;;;;;;5096014;28;20032;-58
2023/10/25 01:50:28;;;;;;;3.80;3.20;;;;;;;;;;5095573;28;20438;-58
2023/10/25 01:52:54;;;;;;;3.53;2.83;;;;;;;;;;5095805;28;20115;-58
2023/10/25 01:55:20;;;;;;;4.53;2.67;;;;;;;;;;5095855;28;20055;-58
2023/10/25 01:57:46;;;;;;;3.55;2.58;;;;;;;;;;5095873;28;20458;-62
2023/10/25 02:00:12;;;;;;;3.50;2.28;;;;;;;;;;5096350;28;20020;-58
2023/10/25 02:02:38;;;;;;;3.78;3.03;;;;;;;;;;5095720;28;20059;-58
2023/10/25 02:05:04;;;;;;;3.85;3.35;;;;;;;;;;5095612;28;20028;-59
2023/10/25 02:07:30;;;;;;;3.30;2.92;;;;;;;;;;5095642;28;20103;-58
2023/10/25 02:09:56;;;;;;;3.10;2.47;;;;;;;;;;5096169;28;20081;-58
2023/10/25 02:12:22;;;;;;;3.45;2.58;;;;;;;;;;5095542;28;20035;-58
2023/10/25 02:14:48;;;;;;;3.53;3.08;;;;;;;;;;5095008;28;20036;-58
2023/10/25 02:17:14;;;;;;;2.90;2.50;;;;;;;;;;5095456;28;20036;-58
2023/10/25 02:19:41;;;;;;;3.70;2.83;;;;;;;;;;5095737;28;20378;-58
2023/10/25 02:22:07;;;;;;;4.65;3.33;;;;;;;;;;5095892;28;20051;-58
2023/10/25 02:24:33;;;;;;;4.82;3.15;;;;;;;;;;5095366;28;20028;-58
2023/10/25 02:26:58;;;;;;;2.80;2.40;;;;;;;;;;5095868;28;20363;-58
2023/10/25 02:29:24;;;;;;;5.82;3.10;;;;;;;;;;5095802;28;20088;-58
2023/10/25 02:31:51;;;;;;;3.40;2.95;;;;;;;;;;5095228;28;20020;-58
2023/10/25 02:34:17;;;;;;;3.38;2.80;;;;;;;;;;5095102;28;20033;-58
2023/10/25 02:36:43;;;;;;;3.97;3.10;;;;;;;;;;5095202;28;20124;-58
2023/10/25 02:39:10;;;;;;;3.80;2.95;;;;;;;;;;5094972;28;20028;-58
2023/10/25 02:41:36;;;;;;;4.28;2.78;;;;;;;;;;5094905;28;20036;-58
2023/10/25 02:44:02;;;;;;;3.00;2.33;;;;;;;;;;5094948;28;20039;-58
2023/10/25 02:46:27;;;;;;;2.83;2.55;;;;;;;;;;5095563;28;20131;-58
2023/10/25 02:48:53;;;;;;;3.08;2.35;;;;;;;;;;5095331;28;20036;-58
2023/10/25 02:51:20;;;;;;;3.13;2.72;;;;;;;;;;5095353;28;20031;-58
2023/10/25 02:53:45;;;;;;;3.40;2.42;;;;;;;;;;5095131;28;20355;-58
2023/10/25 02:56:12;;;;;;;4.25;2.90;;;;;;;;;;5094671;28;20051;-58
2023/10/25 02:58:38;;;;;;;3.05;2.75;;;;;;;;;;5094642;28;20077;-58
2023/10/25 03:01:04;;;;;;;3.28;2.67;;;;;;;;;;5094539;28;20031;-58
2023/10/25 03:03:30;;;;;;;3.25;2.58;;;;;;;;;;5094545;28;20031;-58
2023/10/25 03:05:57;;;;;;;3.15;2.33;;;;;;;;;;5094861;28;20438;-58
2023/10/25 03:08:23;;;;;;;3.65;3.10;;;;;;;;;;5094518;28;20024;-58
2023/10/25 03:10:49;;;;;;;4.13;2.60;;;;;;;;;;5094992;28;20538;-58
2023/10/25 03:13:15;;;;;;;4.45;3.05;;;;;;;;;;5094287;28;20047;-58
2023/10/25 03:15:41;;;;;;;3.45;2.70;;;;;;;;;;5094300;28;20449;-58
2023/10/25 03:18:07;;;;;;;3.17;2.38;;;;;;;;;;5094511;28;20103;-58
2023/10/25 03:20:33;;;;;;;2.88;2.30;;;;;;;;;;5094750;28;20437;-58
2023/10/25 03:22:59;;;;;;;3.42;2.58;;;;;;;;;;5094707;28;20074;-58
2023/10/25 03:25:25;;;;;;;3.60;2.25;;;;;;;;;;5094908;28;20032;-58
2023/10/25 03:27:52;;;;;;;3.88;2.92;;;;;;;;;;5094063;28;20020;-58
2023/10/25 03:30:18;;;;;;;3.42;2.72;;;;;;;;;;5094580;28;20025;-58
2023/10/25 03:32:44;;;;;;;4.18;3.38;;;;;;;;;;5094721;28;20020;-58
2023/10/25 03:35:10;;;;;;;3.50;2.90;;;;;;;;;;5094715;28;20043;-58
2023/10/25 03:37:39;;;;;;;5.00;3.15;;;;;;;;;;5094330;28;20047;-58
2023/10/25 03:40:08;;;;;;;3.95;3.20;;;;;;;;;;5093952;28;20064;-58
2023/10/25 03:42:34;;;;;;;44.80;6.68;;;;;;;;;;5094679;28;20020;-58
2023/10/25 03:45:00;;;;;;;27.38;6.40;;;;;;;;;;5093800;28;20020;-58
2023/10/25 03:47:26;;;;;;;11.75;4.65;;;;;;;;;;5093450;28;20035;-58
2023/10/25 03:49:55;;;;;;;34.90;5.15;;;;;;;;;;5094340;28;20028;-58
2023/10/25 03:52:21;;;;;;;90.60;9.27;;;;;;;;;;5094229;28;20031;-58
2023/10/25 03:54:47;;;;;;;20.00;5.07;;;;;;;;;;5093683;28;20113;-58
2023/10/25 03:57:13;;;;;;;15.48;5.15;;;;;;;;;;5093699;28;20074;-58
2023/10/25 03:59:39;;;;;;;10.60;5.00;;;;;;;;;;5094028;28;20066;-59
2023/10/25 04:02:05;;;;;;;19.15;5.55;;;;;;;;;;5093423;28;20020;-58
2023/10/25 04:04:33;;;;;;;5.60;4.65;;;;;;;;;;5093621;28;20032;-58
2023/10/25 04:06:59;;;;;;;5.18;4.43;;;;;;;;;;5094041;28;20070;-58
2023/10/25 04:09:25;;;;;;;6.07;4.90;;;;;;;;;;5093990;28;20025;-59
2023/10/25 04:11:51;;;;;;;5.28;4.05;;;;;;;;;;5093736;28;20423;-58
2023/10/25 04:14:17;;;;;;;5.53;4.53;;;;;;;;;;5095760;28;20035;-59
2023/10/25 04:16:43;;;;;;;6.10;4.55;;;;;;;;;;5097832;28;20069;-59
2023/10/25 04:19:09;;;;;;;6.95;4.72;;;;;;;;;;5097849;28;20036;-59
2023/10/25 04:21:35;;;;;;;5.18;4.65;;;;;;;;;;5098453;28;20529;-59
2023/10/25 04:24:01;;;;;;;5.28;4.57;;;;;;;;;;5097816;28;20064;-58
2023/10/25 04:26:28;;;;;;;5.15;4.63;;;;;;;;;;5097721;28;20052;-58
2023/10/25 04:28:54;;;;;;;22.02;6.03;;;;;;;;;;5097979;28;20401;-59
2023/10/25 04:31:20;;;;;;;30.05;6.03;;;;;;;;;;5098143;28;20020;-58
2023/10/25 04:33:47;;;;;;;27.70;6.82;;;;;;;;;;5098048;28;20430;-59
2023/10/25 04:36:13;;;;;;;14.32;5.70;;;;;;;;;;5098211;28;20052;-59
2023/10/25 04:38:40;;;;;;;4.85;4.32;;;;;;;;;;5097418;28;20085;-59
2023/10/25 04:41:06;;;;;;;7.75;5.13;;;;;;;;;;5097418;28;20474;-59
2023/10/25 04:43:32;;;;;;;5.05;4.55;;;;;;;;;;5097285;28;20035;-58
2023/10/25 04:45:58;;;;;;;5.93;4.95;;;;;;;;;;5096912;28;20032;-59
2023/10/25 04:48:24;;;;;;;5.20;4.40;;;;;;;;;;5097147;28;20032;-59
2023/10/25 04:50:50;;;;;;;6.25;4.57;;;;;;;;;;5097756;28;20400;-58
2023/10/25 04:53:15;;;;;;;6.28;4.85;;;;;;;;;;5097473;28;20028;-59
2023/10/25 04:55:45;;;;;;;4.55;4.15;;;;;;;;;;5096715;28;20070;-59
2023/10/25 04:58:11;;;;;;;3.78;3.25;;;;;;;;;;5097022;28;20450;-59
2023/10/25 05:00:37;;;;;;;4.35;3.92;;;;;;;;;;5097536;28;20115;-59
2023/10/25 05:03:05;;;;;;;4.63;4.22;;;;;;;;;;5096758;28;20413;-59
2023/10/25 05:05:32;;;;;;;3.35;2.97;;;;;;;;;;5096499;28;20106;-58
2023/10/25 05:07:58;;;;;;;5.25;3.55;;;;;;;;;;5096265;28;20496;-59
2023/10/25 05:10:25;;;;;;;3.63;2.97;;;;;;;;;;5097649;28;20020;-58
2023/10/25 05:12:51;;;;;;;4.38;3.75;;;;;;;;;;5096808;28;20028;-59
2023/10/25 05:15:18;;;;;;;5.53;4.10;;;;;;;;;;5096585;28;20040;-59
2023/10/25 05:17:45;;;;;;;5.07;3.80;;;;;;;;;;5097048;28;20036;-59
2023/10/25 05:20:12;;;;;;;5.38;3.78;;;;;;;;;;5096580;28;20028;-59
2023/10/25 05:22:39;;;;;;;7.28;4.22;;;;;;;;;;5096554;28;20115;-58
2023/10/25 05:25:06;;;;;;;4.85;3.63;;;;;;;;;;5095655;28;20366;-58
2023/10/25 05:27:33;;;;;;;3.83;3.42;;;;;;;;;;5096694;28;20111;-58
2023/10/25 05:30:05;;;;;;;4.63;3.45;;;;;;;;;;5096730;28;20055;-59
2023/10/25 05:32:31;;;;;;;5.10;3.75;;;;;;;;;;5096366;28;20046;-59
2023/10/25 05:34:58;;;;;;;4.13;3.10;;;;;;;;;;5095917;28;20557;-58
2023/10/25 05:37:24;;;;;;;4.80;3.00;;;;;;;;;;5096770;28;20055;-58
2023/10/25 05:39:50;;;;;;;4.72;4.07;;;;;;;;;;5096908;28;20060;-59
2023/10/25 05:42:19;;;;;;;4.82;3.92;;;;;;;;;;5095891;28;20434;-58
2023/10/25 05:44:46;;;;;;;3.95;3.30;;;;;;;;;;5096352;28;20055;-59
2023/10/25 05:47:12;;;;;;;4.95;3.58;;;;;;;;;;5095786;28;20482;-58
2023/10/25 05:49:38;;;;;;;3.55;2.85;;;;;;;;;;5096758;28;20061;-59
2023/10/25 05:52:05;;;;;;;3.88;3.38;;;;;;;;;;5095924;28;20042;-58
2023/10/25 05:54:31;;;;;;;4.43;3.55;;;;;;;;;;5095572;28;20542;-58
2023/10/25 05:56:57;;;;;;;4.43;3.95;;;;;;;;;;5095895;28;20103;-58
2023/10/25 05:59:23;;;;;;;5.65;3.83;;;;;;;;;;5096364;28;20046;-58
2023/10/25 06:01:50;;;;;;;3.70;3.33;;;;;;;;;;5095766;28;20472;-58
2023/10/25 06:04:17;;;;;;;4.40;3.40;;;;;;;;;;5095680;28;20056;-59
2023/10/25 06:06:44;;;;;;;3.70;3.28;;;;;;;;;;5095718;28;20032;-59
2023/10/25 06:09:10;;;;;;;4.60;3.35;;;;;;;;;;5095652;28;20077;-58
2023/10/25 06:11:37;;;;;;;4.00;3.40;;;;;;;;;;5095580;28;20028;-58
2023/10/25 06:14:03;;;;;;;5.13;4.20;;;;;;;;;;5095323;28;20042;-58
2023/10/25 06:16:29;;;;;;;4.65;3.25;;;;;;;;;;5095057;28;20397;-59
2023/10/25 06:18:55;;;;;;;3.97;3.45;;;;;;;;;;5095736;28;20122;-59
2023/10/25 06:21:21;;;;;;;4.68;3.58;;;;;;;;;;5095771;28;20067;-58
2023/10/25 06:23:47;;;;;;;4.60;3.22;;;;;;;;;;5096128;28;20032;-58
2023/10/25 06:26:13;;;;;;;7.10;3.70;;;;;;;;;;5095555;28;20084;-59
2023/10/25 06:28:39;;;;;;;4.15;3.67;;;;;;;;;;5095215;28;20057;-59
2023/10/25 06:31:05;;;;;;;3.75;3.28;;;;;;;;;;5095709;28;20016;-60
2023/10/25 06:33:31;;;;;;;3.70;3.15;;;;;;;;;;5095659;28;20355;-58
2023/10/25 06:36:00;;;;;;;4.68;3.15;;;;;;;;;;5094561;28;20063;-59
2023/10/25 06:38:27;;;;;;;4.65;3.25;;;;;;;;;;5096017;28;20028;-58
2023/10/25 06:40:53;;;;;;;4.60;3.28;;;;;;;;;;5095662;28;20035;-59
2023/10/25 06:43:19;;;;;;;3.88;3.15;;;;;;;;;;5094771;28;20031;-58
2023/10/25 06:45:48;;;;;;;5.07;3.17;;;;;;;;;;5095024;28;20016;-59
2023/10/25 06:48:14;;;;;;;3.63;2.85;;;;;;;;;;5095166;28;20032;-58
2023/10/25 06:50:40;;;;;;;6.10;4.05;;;;;;;;;;5094846;28;20020;-59
2023/10/25 06:53:06;;;;;;;4.60;3.50;;;;;;;;;;5094475;28;20108;-58
2023/10/25 06:55:32;;;;;;;4.28;3.80;;;;;;;;;;5094488;28;20481;-58
2023/10/25 06:57:58;;;;;;;6.50;4.60;;;;;;;;;;5094939;28;20103;-59
2023/10/25 07:00:24;;;;;;;4.65;3.67;;;;;;;;;;5095083;28;20107;-58
2023/10/25 07:02:53;;;;;;;4.90;4.00;;;;;;;;;;5094741;28;20024;-58
2023/10/25 07:05:26;;;;;;;4.97;4.47;;;;;;;;;;5094836;28;20024;-58
2023/10/25 07:07:52;;;;;;;6.43;5.00;;;;;;;;;;5095442;28;20450;-59
2023/10/25 07:10:18;;;;;;;6.45;5.00;;;;;;;;;;5094857;28;20377;-58
2023/10/25 07:12:45;;;;;;;7.20;5.70;;;;;;;;;;5094505;28;20028;-59
2023/10/25 07:15:11;;;;;;;5.43;4.13;;;;;;;;;;5094861;28;20036;-59
2023/10/25 07:17:38;;;;;;;4.50;4.10;;;;;;;;;;5094109;28;20363;-58
2023/10/25 07:20:05;;;;;;;6.60;4.95;;;;;;;;;;5094783;28;20119;-59
2023/10/25 07:22:31;;;;;;;5.63;4.95;;;;;;;;;;5094266;28;20359;-59
2023/10/25 07:24:57;;;;;;;6.43;4.70;;;;;;;;;;5094750;28;20070;-59
2023/10/25 07:27:22;;;;;;;5.50;4.13;;;;;;;;;;5094309;28;20442;-59
2023/10/25 07:29:49;;;;;;;5.05;4.32;;;;;;;;;;5094058;28;20028;-59
2023/10/25 07:32:15;;;;;;;6.95;4.78;;;;;;;;;;5094169;28;20094;-60
2023/10/25 07:34:42;;;;;;;6.18;5.53;;;;;;;;;;5093885;28;20032;-58
2023/10/25 07:37:08;;;;;;;5.60;4.95;;;;;;;;;;5093515;28;20126;-58
2023/10/25 07:39:37;;;;;;;6.43;5.60;;;;;;;;;;5093662;28;20051;-58
2023/10/25 07:42:03;;;;;;;5.55;5.05;;;;;;;;;;5094637;28;20063;-58
2023/10/25 07:44:29;;;;;;;5.65;4.95;;;;;;;;;;5093923;28;20032;-58
2023/10/25 07:46:55;;;;;;;5.55;4.72;;;;;;;;;;5094441;28;20449;-58
2023/10/25 07:49:21;;;;;;;5.72;5.13;;;;;;;;;;5093110;28;20053;-58
2023/10/25 07:51:47;;;;;;;6.05;5.45;;;;;;;;;;5094316;28;20103;-58
2023/10/25 07:54:13;;;;;;;5.85;4.88;;;;;;;;;;5093753;28;20115;-58
2023/10/25 07:56:39;;;;;;;6.85;6.25;;;;;;;;;;5093796;28;20020;-58
2023/10/25 07:59:05;;;;;;;6.82;6.13;;;;;;;;;;5093615;28;20109;-58
2023/10/25 08:01:31;;;;;;;6.72;6.13;;;;;;;;;;5094254;28;20097;-58
2023/10/25 08:03:57;;;;;;;7.13;6.38;;;;;;;;;;5093695;28;20028;-58
2023/10/25 08:06:23;;;;;;;6.00;5.40;;;;;;;;;;5093603;28;20020;-58
2023/10/25 08:08:49;;;;;;;4.95;4.15;;;;;;;;;;5094280;28;20446;-58
2023/10/25 08:11:15;;;;;;;6.53;5.50;;;;;;;;;;5094190;28;20035;-58
2023/10/25 08:13:43;;;;;;;4.95;4.45;;;;;;;;;;5093918;28;20077;-58
2023/10/25 08:16:09;;;;;;;5.38;4.78;;;;;;;;;;5093501;28;20029;-58
2023/10/25 08:18:35;;;;;;;4.85;4.38;;;;;;;;;;5093702;28;20028;-58
2023/10/25 08:21:01;;;;;;;5.90;4.40;;;;;;;;;;5093672;28;20024;-58
2023/10/25 08:23:27;;;;;;;5.32;4.60;;;;;;;;;;5093519;28;20105;-58
2023/10/25 08:25:53;;;;;;;4.53;3.55;;;;;;;;;;5092881;28;20481;-58
2023/10/25 08:28:19;;;;;;;5.57;3.58;;;;;;;;;;5093424;28;20157;-58
2023/10/25 08:30:45;;;;;;;4.80;4.35;;;;;;;;;;5093694;28;20028;-58
2023/10/25 08:33:11;;;;;;;5.72;4.25;;;;;;;;;;5093733;28;20024;-58
2023/10/25 08:35:37;;;;;;;5.63;4.97;;;;;;;;;;5093532;28;20370;-59
2023/10/25 08:38:04;;;;;;;5.20;4.70;;;;;;;;;;5093495;28;20032;-58
2023/10/25 08:40:31;;;;;;;4.63;3.97;;;;;;;;;;5093483;28;20028;-58
2023/10/25 08:43:00;;;;;;;6.05;5.18;;;;;;;;;;5092872;28;20378;-58
2023/10/25 08:45:27;;;;;;;6.88;4.80;;;;;;;;;;5093727;28;20028;-58
2023/10/25 08:47:53;;;;;;;5.68;4.78;;;;;;;;;;5093368;28;20033;-58
2023/10/25 08:50:20;;;;;;;4.30;3.90;;;;;;;;;;5093925;28;20016;-58
2023/10/25 08:52:49;;;;;;;5.40;4.90;;;;;;;;;;5093394;28;20351;-58
2023/10/25 08:55:17;;;;;;;4.65;4.18;;;;;;;;;;5093219;28;20046;-58
2023/10/25 08:57:43;;;;;;;4.22;3.63;;;;;;;;;;5094062;28;20028;-58
2023/10/25 09:00:11;;;;;;;5.03;3.67;;;;;;;;;;5095542;28;20100;-58
2023/10/25 09:02:38;;;;;;;4.65;4.18;;;;;;;;;;5096884;28;20028;-58
2023/10/25 09:05:06;;;;;;;3.90;3.50;;;;;;;;;;5096773;28;20032;-58
2023/10/25 09:07:36;;;;;;;4.47;4.05;;;;;;;;;;5096892;28;20174;-58
2023/10/25 09:10:11;;;;;;;4.13;3.67;;;;;;;;;;5096997;28;20028;-58
2023/10/25 09:12:37;;;;;;;4.93;3.67;;;;;;;;;;5097615;28;20025;-58
2023/10/25 09:15:04;;;;;;;3.90;3.50;;;;;;;;;;5096400;28;20039;-58
2023/10/25 09:17:33;;;;;;;4.40;4.00;;;;;;;;;;5096727;28;20035;-58
2023/10/25 09:19:59;;;;;;;4.63;3.50;;;;;;;;;;5096808;28;20020;-58
2023/10/25 09:22:25;;;;;;;4.53;3.95;;;;;;;;;;5096627;28;20085;-58
2023/10/25 09:24:52;;;;;;;4.05;3.65;;;;;;;;;;5096341;28;20043;-58
2023/10/25 09:27:19;;;;;;;5.13;3.95;;;;;;;;;;5097229;28;20366;-58
2023/10/25 09:29:46;;;;;;;3.95;3.40;;;;;;;;;;5097346;28;20027;-58
2023/10/25 09:32:12;;;;;;;9.35;3.63;;;;;;;;;;5096497;28;20024;-58
2023/10/25 09:34:38;;;;;;;5.15;4.25;;;;;;;;;;5096206;28;20036;-58
2023/10/25 09:37:04;;;;;;;5.22;3.55;;;;;;;;;;5096814;28;20044;-58
2023/10/25 09:39:36;;;;;;;5.80;4.45;;;;;;;;;;5096530;28;20529;-58
2023/10/25 09:42:03;;;;;;;4.32;3.92;;;;;;;;;;5096572;28;20108;-58
2023/10/25 09:44:31;;;;;;;4.45;3.72;;;;;;;;;;5096168;28;20397;-58
2023/10/25 09:46:59;;;;;;;4.57;3.83;;;;;;;;;;5096125;28;20020;-58
2023/10/25 09:49:29;;;;;;;6.00;4.80;;;;;;;;;;5095834;28;20488;-58
2023/10/25 09:52:05;;;;;;;4.72;3.90;;;;;;;;;;5096616;28;20117;-58
2023/10/25 09:54:34;;;;;;;4.43;3.65;;;;;;;;;;5096504;28;20374;-58
2023/10/25 09:57:02;;;;;;;5.68;3.90;;;;;;;;;;5095652;28;20470;-58
2023/10/25 09:59:28;;;;;;;4.07;3.78;;;;;;;;;;5095862;28;20028;-58
2023/10/25 10:01:55;;;;;;;4.93;4.43;;;;;;;;;;5095793;28;20024;-58
2023/10/25 10:04:41;;;;;;;4.95;3.75;;;;;;;;;;5096222;28;20028;-58
2023/10/25 10:07:26;;;;;;;5.75;4.13;;;;;;;;;;5095444;28;20531;-58
2023/10/25 10:09:54;;;;;;;4.50;3.63;;;;;;;;;;5096306;28;20052;-59
2023/10/25 10:12:20;;;;;;;5.53;3.88;;;;;;;;;;5094766;28;20027;-58
2023/10/25 10:14:49;;;;;;;4.35;3.45;;;;;;;;;;5096015;28;20035;-58
2023/10/25 10:17:19;;;;;;;6.13;3.42;;;;;;;;;;5095481;28;20028;-58
2023/10/25 10:19:46;;;;;;;2.85;2.33;;;;;;;;;;5096079;28;20027;-58
2023/10/25 10:22:16;;;;;;;4.28;3.22;;;;;;;;;;5096013;28;20110;-58
2023/10/25 10:24:42;;;;;;;3.08;2.78;;;;;;;;;;5095772;28;20036;-58
2023/10/25 10:27:09;;;;;;;6.18;3.45;;;;;;;;;;5095344;28;20046;-58
2023/10/25 10:29:35;;;;;;;6.25;3.40;;;;;;;;;;5095904;28;20016;-58
2023/10/25 10:32:02;;;;;;;4.07;3.13;;;;;;;;;;5095505;28;20024;-58
2023/10/25 10:34:37;;;;;;;4.35;3.75;;;;;;;;;;5095293;28;20515;-60
2023/10/25 10:37:09;;;;;;;6.53;2.95;;;;;;;;;;5095022;28;20051;-58
2023/10/25 10:39:36;;;;;;;3.50;2.65;;;;;;;;;;5095134;28;20024;-58
2023/10/25 10:42:02;;;;;;;3.33;3.03;;;;;;;;;;5095616;28;20168;-58
2023/10/25 10:44:29;;;;;;;3.58;2.28;;;;;;;;;;5095343;28;20027;-58
2023/10/25 10:46:56;;;;;;;3.65;2.78;;;;;;;;;;5095207;28;20031;-58
2023/10/25 10:49:22;;;;;;;4.00;2.50;;;;;;;;;;5095476;28;20081;-58
2023/10/25 10:51:49;;;;;;;3.90;2.30;;;;;;;;;;5095445;28;20031;-58
2023/10/25 10:54:15;;;;;;;2.90;2.00;;;;;;;;;;5094775;28;20048;-58
2023/10/25 10:56:41;;;;;;;2.67;1.95;;;;;;;;;;5095148;28;20343;-58
2023/10/25 10:59:07;;;;;;;2.53;1.55;;;;;;;;;;5093484;28;20028;-58
2023/10/25 11:01:33;;;;;;;3.30;2.25;;;;;;;;;;5094761;28;20063;-58
2023/10/25 11:03:59;;;;;;;3.20;1.98;;;;;;;;;;5094976;28;20032;-58
2023/10/25 11:06:25;;;;;;;2.92;2.22;;;;;;;;;;5094529;28;20423;-58
2023/10/25 11:08:52;;;;;;;2.78;2.03;;;;;;;;;;5095081;28;20028;-58
2023/10/25 11:11:21;;;;;;;2.38;1.60;;;;;;;;;;5094577;28;20097;-58
2023/10/25 11:13:49;;;;;;;4.78;2.38;;;;;;;;;;5094109;28;20028;-58
2023/10/25 11:16:14;;;;;;;3.55;2.55;;;;;;;;;;5094323;28;20032;-58
2023/10/25 11:18:40;;;;;;;3.75;2.35;;;;;;;;;;5094339;28;20583;-58
2023/10/25 11:21:06;;;;;;;2.67;2.03;;;;;;;;;;5094290;28;20077;-58
2023/10/25 11:23:32;;;;;;;2.90;1.70;;;;;;;;;;5094016;28;20032;-58
2023/10/25 11:25:58;;;;;;;2.45;1.48;;;;;;;;;;5094144;28;20024;-58
2023/10/25 11:28:24;;;;;;;2.30;1.20;;;;;;;;;;5094176;28;20028;-58
2023/10/25 11:30:51;;;;;;;2.42;1.30;;;;;;;;;;5094735;28;20335;-58
2023/10/25 11:33:17;;;;;;;1.80;1.15;;;;;;;;;;5094027;28;20370;-58
2023/10/25 11:35:43;;;;;;;3.30;2.10;;;;;;;;;;5093640;28;20054;-58
2023/10/25 11:38:12;;;;;;;2.42;1.75;;;;;;;;;;5094719;28;20024;-58
2023/10/25 11:40:39;;;;;;;1.65;0.98;;;;;;;;;;5094393;28;20026;-58
2023/10/25 11:43:08;;;;;;;1.13;0.73;;;;;;;;;;5094075;28;20020;-58
2023/10/25 11:45:35;;;;;;;2.17;1.00;;;;;;;;;;5094114;28;20028;-58
2023/10/25 11:48:02;;;;;;;1.80;0.90;;;;;;;;;;5093888;28;20077;-58
2023/10/25 11:50:28;;;;;;;1.70;0.88;;;;;;;;;;5094389;28;20032;-58
2023/10/25 11:52:54;;;;;;;1.20;0.60;;;;;;;;;;5093476;28;20512;-58
2023/10/25 11:55:20;;;;;;;1.00;0.55;;;;;;;;;;5093790;28;20123;-58
2023/10/25 11:57:46;;;;;;;2.10;0.77;;;;;;;;;;5094345;28;20027;-58
2023/10/25 12:00:12;;;;;;;2.83;0.93;;;;;;;;;;5094698;28;20447;-58
2023/10/25 12:02:38;;;;;;;1.63;0.80;;;;;;;;;;5093849;28;20378;-58
2023/10/25 12:05:05;;;;;;;1.17;0.70;;;;;;;;;;5094255;28;20027;-58
2023/10/25 12:07:31;;;;;;;1.58;0.70;;;;;;;;;;5093701;28;20024;-58
2023/10/25 12:09:58;;;;;;;1.40;0.60;;;;;;;;;;5093963;28;20066;-58
2023/10/25 12:12:24;;;;;;;1.63;0.70;;;;;;;;;;5094361;28;20024;-58
2023/10/25 12:14:51;;;;;;;1.70;0.85;;;;;;;;;;5093544;28;20123;-58
2023/10/25 12:17:17;;;;;;;0.95;0.60;;;;;;;;;;5093550;28;20110;-58
2023/10/25 12:19:43;;;;;;;1.15;0.50;;;;;;;;;;5094078;28;20028;-58
2023/10/25 12:22:09;;;;;;;1.20;0.68;;;;;;;;;;5093545;28;20416;-58
2023/10/25 12:24:36;;;;;;;5.03;1.00;;;;;;;;;;5093796;28;20028;-58
2023/10/25 12:27:02;;;;;;;0.98;0.40;;;;;;;;;;5093495;28;20035;-58
2023/10/25 12:29:28;;;;;;;1.25;0.60;;;;;;;;;;5094097;28;20066;-58
2023/10/25 12:31:54;;;;;;;1.30;0.68;;;;;;;;;;5093406;28;20028;-58
2023/10/25 12:34:20;;;;;;;0.82;0.32;;;;;;;;;;5093883;28;20028;-58
2023/10/25 12:36:46;;;;;;;1.85;0.85;;;;;;;;;;5097708;28;20052;-58
2023/10/25 12:39:13;;;;;;;1.48;0.60;;;;;;;;;;5097724;28;20031;-58
2023/10/25 12:41:38;;;;;;;0.93;0.40;;;;;;;;;;5097778;28;20020;-58
2023/10/25 12:44:08;;;;;;;3.00;0.57;;;;;;;;;;5097315;28;20035;-58
2023/10/25 12:46:34;;;;;;;1.10;0.40;;;;;;;;;;5098008;28;20039;-58
2023/10/25 12:49:00;;;;;;;1.23;0.57;;;;;;;;;;5097862;28;20120;-58
2023/10/25 12:51:26;;;;;;;1.25;0.57;;;;;;;;;;5097580;28;20060;-58
2023/10/25 12:53:52;;;;;;;6.72;0.90;;;;;;;;;;5097108;28;20085;-58
2023/10/25 12:56:18;;;;;;;0.98;0.57;;;;;;;;;;5097709;28;20044;-58
2023/10/25 12:58:44;;;;;;;1.30;0.70;;;;;;;;;;5097334;28;20449;-58
2023/10/25 13:01:10;;;;;;;2.67;0.50;;;;;;;;;;5097669;28;20032;-58
2023/10/25 13:03:36;;;;;;;0.85;0.40;;;;;;;;;;5097155;28;20035;-58
2023/10/25 13:06:03;;;;;;;1.48;0.65;;;;;;;;;;5096559;28;20031;-58
2023/10/25 13:08:29;;;;;;;0.98;0.47;;;;;;;;;;5097402;28;20077;-58
2023/10/25 13:10:55;;;;;;;0.77;0.30;;;;;;;;;;5096889;28;20411;-58
2023/10/25 13:13:21;;;;;;;0.85;0.35;;;;;;;;;;5097267;28;20085;-58
2023/10/25 13:15:47;;;;;;;0.63;0.30;;;;;;;;;;5096806;28;20020;-58
2023/10/25 13:18:14;;;;;;;0.55;0.28;;;;;;;;;;5096726;28;20081;-58
2023/10/25 13:20:40;;;;;;;0.70;0.28;;;;;;;;;;5097129;28;20024;-58
2023/10/25 13:23:06;;;;;;;1.08;0.35;;;;;;;;;;5096603;28;20351;-58
2023/10/25 13:25:32;;;;;;;1.20;0.50;;;;;;;;;;5096561;28;20032;-58
2023/10/25 13:27:57;;;;;;;1.67;0.50;;;;;;;;;;5097054;28;20035;-58
2023/10/25 13:30:23;;;;;;;0.68;0.30;;;;;;;;;;5097323;28;20024;-58
2023/10/25 13:32:49;;;;;;;1.13;0.50;;;;;;;;;;5096482;28;20016;-58
2023/10/25 13:35:15;;;;;;;3.47;0.40;;;;;;;;;;5097108;28;20028;-58
2023/10/25 13:37:41;;;;;;;2.28;0.40;;;;;;;;;;5094968;28;20123;-58
2023/10/25 13:40:08;;;;;;;0.90;0.40;;;;;;;;;;5097088;28;20028;-58
2023/10/25 13:42:34;;;;;;;0.95;0.47;;;;;;;;;;5095858;28;20473;-58
2023/10/25 13:45:00;;;;;;;1.73;0.77;;;;;;;;;;5096174;28;20038;-58
2023/10/25 13:47:26;;;;;;;0.45;0.20;;;;;;;;;;5095552;28;20024;-58
2023/10/25 13:49:52;;;;;;;1.30;0.50;;;;;;;;;;5096182;28;20027;-58
2023/10/25 13:52:20;;;;;;;2.10;0.50;;;;;;;;;;5095772;28;20035;-58
2023/10/25 13:54:46;;;;;;;2.60;0.68;;;;;;;;;;5095975;28;20072;-58
2023/10/25 13:57:12;;;;;;;1.15;0.45;;;;;;;;;;5096862;28;20028;-58
2023/10/25 13:59:38;;;;;;;1.23;0.43;;;;;;;;;;5096860;28;20028;-58
2023/10/25 14:02:04;;;;;;;1.27;0.45;;;;;;;;;;5096119;28;20024;-58
2023/10/25 14:04:33;;;;;;;0.57;0.32;;;;;;;;;;5095710;28;20031;-58
2023/10/25 14:06:59;;;;;;;1.10;0.40;;;;;;;;;;5096373;28;20024;-58
2023/10/25 14:09:25;;;;;;;0.93;0.40;;;;;;;;;;5096296;28;20024;-58
2023/10/25 14:11:52;;;;;;;0.77;0.43;;;;;;;;;;5096254;28;20473;-58
2023/10/25 14:14:18;;;;;;;0.95;0.43;;;;;;;;;;5095531;28;20065;-58
2023/10/25 14:16:44;;;;;;;0.98;0.60;;;;;;;;;;5095403;28;20378;-58
2023/10/25 14:19:10;;;;;;;0.82;0.43;;;;;;;;;;5095149;28;20028;-58
2023/10/25 14:21:39;;;;;;;0.80;0.50;;;;;;;;;;5095881;28;20133;-58
2023/10/25 14:24:06;;;;;;;1.75;0.77;;;;;;;;;;5095740;28;20484;-58
2023/10/25 14:26:32;;;;;;;1.13;0.55;;;;;;;;;;5095348;28;20051;-58
2023/10/25 14:28:58;;;;;;;1.60;0.70;;;;;;;;;;5095353;28;20104;-58
2023/10/25 14:31:24;;;;;;;1.80;0.82;;;;;;;;;;5095627;28;20111;-58
2023/10/25 14:33:51;;;;;;;1.23;0.60;;;;;;;;;;5095451;28;20028;-58
2023/10/25 14:36:17;;;;;;;1.33;0.52;;;;;;;;;;5095636;28;20084;-58